sensor_id;sensor_type;location;lat;lon;timestamp;P1;durP1;ratioP1;P2;durP2;ratioP2
24151;SDS011;12311;50.866;4.332;2023-05-07T00:00:02;2.83;;;1.60;;
24151;SDS011;12311;50.866;4.332;2023-05-07T00:02:28;5.05;;;1.67;;
24151;SDS011;12311;50.866;4.332;2023-05-07T00:04:54;8.63;;;1.52;;
24151;SDS011;12311;50.866;4.332;2023-05-07T00:07:20;7.32;;;1.73;;
24151;SDS011;12311;50.866;4.332;2023-05-07T00:09:46;2.63;;;1.58;;
24151;SDS011;12311;50.866;4.332;2023-05-07T00:12:11;3.28;;;1.50;;
24151;SDS011;12311;50.866;4.332;2023-05-07T00:14:37;5.43;;;2.00;;
24151;SDS011;12311;50.866;4.332;2023-05-07T00:17:03;4.40;;;1.50;;
24151;SDS011;12311;50.866;4.332;2023-05-07T00:19:28;5.60;;;1.40;;
24151;SDS011;12311;50.866;4.332;2023-05-07T00:21:54;2.20;;;1.08;;
24151;SDS011;12311;50.866;4.332;2023-05-07T00:24:20;1.85;;;1.27;;
24151;SDS011;12311;50.866;4.332;2023-05-07T00:26:46;2.83;;;1.25;;
24151;SDS011;12311;50.866;4.332;2023-05-07T00:29:12;5.32;;;2.10;;
24151;SDS011;12311;50.866;4.332;2023-05-07T00:31:37;5.78;;;1.40;;
24151;SDS011;12311;50.866;4.332;2023-05-07T00:34:03;2.30;;;1.20;;
24151;SDS011;12311;50.866;4.332;2023-05-07T00:36:29;3.72;;;1.85;;
24151;SDS011;12311;50.866;4.332;2023-05-07T00:38:56;3.58;;;1.33;;
24151;SDS011;12311;50.866;4.332;2023-05-07T00:41:24;2.47;;;1.20;;
24151;SDS011;12311;50.866;4.332;2023-05-07T00:43:49;2.72;;;1.40;;
24151;SDS011;12311;50.866;4.332;2023-05-07T00:46:16;3.08;;;1.58;;
24151;SDS011;12311;50.866;4.332;2023-05-07T00:48:45;6.75;;;2.05;;
24151;SDS011;12311;50.866;4.332;2023-05-07T00:51:10;2.88;;;1.40;;
24151;SDS011;12311;50.866;4.332;2023-05-07T00:53:37;2.03;;;1.27;;
24151;SDS011;12311;50.866;4.332;2023-05-07T00:56:03;4.13;;;1.52;;
24151;SDS011;12311;50.866;4.332;2023-05-07T00:58:31;4.72;;;1.27;;
24151;SDS011;12311;50.866;4.332;2023-05-07T01:00:57;3.80;;;1.08;;
24151;SDS011;12311;50.866;4.332;2023-05-07T01:03:23;3.58;;;1.70;;
24151;SDS011;12311;50.866;4.332;2023-05-07T01:05:48;2.08;;;1.23;;
24151;SDS011;12311;50.866;4.332;2023-05-07T01:08:15;9.68;;;1.60;;
24151;SDS011;12311;50.866;4.332;2023-05-07T01:10:42;2.63;;;1.20;;
24151;SDS011;12311;50.866;4.332;2023-05-07T01:13:09;4.78;;;1.25;;
24151;SDS011;12311;50.866;4.332;2023-05-07T01:15:37;2.70;;;1.48;;
24151;SDS011;12311;50.866;4.332;2023-05-07T01:18:03;2.33;;;1.10;;
24151;SDS011;12311;50.866;4.332;2023-05-07T01:20:29;3.53;;;1.25;;
24151;SDS011;12311;50.866;4.332;2023-05-07T01:22:55;2.95;;;1.33;;
24151;SDS011;12311;50.866;4.332;2023-05-07T01:25:22;2.53;;;1.67;;
24151;SDS011;12311;50.866;4.332;2023-05-07T01:27:49;4.35;;;1.52;;
24151;SDS011;12311;50.866;4.332;2023-05-07T01:30:15;2.97;;;1.55;;
24151;SDS011;12311;50.866;4.332;2023-05-07T01:35:20;10.20;;;2.00;;
24151;SDS011;12311;50.866;4.332;2023-05-07T01:37:49;2.03;;;1.30;;
24151;SDS011;12311;50.866;4.332;2023-05-07T01:40:15;3.83;;;1.63;;
24151;SDS011;12311;50.866;4.332;2023-05-07T01:42:42;6.05;;;1.20;;
24151;SDS011;12311;50.866;4.332;2023-05-07T01:45:09;4.78;;;1.30;;
24151;SDS011;12311;50.866;4.332;2023-05-07T01:47:36;4.65;;;1.70;;
24151;SDS011;12311;50.866;4.332;2023-05-07T01:50:02;4.32;;;1.75;;
24151;SDS011;12311;50.866;4.332;2023-05-07T01:52:30;4.40;;;1.65;;
24151;SDS011;12311;50.866;4.332;2023-05-07T01:54:56;3.08;;;1.58;;
24151;SDS011;12311;50.866;4.332;2023-05-07T01:57:22;4.13;;;1.45;;
24151;SDS011;12311;50.866;4.332;2023-05-07T01:59:47;6.70;;;1.25;;
24151;SDS011;12311;50.866;4.332;2023-05-07T02:02:13;3.45;;;1.50;;
24151;SDS011;12311;50.866;4.332;2023-05-07T02:04:39;4.00;;;1.55;;
24151;SDS011;12311;50.866;4.332;2023-05-07T02:07:05;3.28;;;1.70;;
24151;SDS011;12311;50.866;4.332;2023-05-07T02:09:30;4.53;;;2.05;;
24151;SDS011;12311;50.866;4.332;2023-05-07T02:11:56;13.13;;;1.88;;
24151;SDS011;12311;50.866;4.332;2023-05-07T02:14:22;1.92;;;1.20;;
24151;SDS011;12311;50.866;4.332;2023-05-07T02:16:47;5.78;;;1.67;;
24151;SDS011;12311;50.866;4.332;2023-05-07T02:19:13;6.63;;;2.38;;
24151;SDS011;12311;50.866;4.332;2023-05-07T02:21:39;2.85;;;1.60;;
24151;SDS011;12311;50.866;4.332;2023-05-07T02:24:04;9.25;;;1.80;;
24151;SDS011;12311;50.866;4.332;2023-05-07T02:26:30;7.80;;;1.83;;
24151;SDS011;12311;50.866;4.332;2023-05-07T02:28:56;6.93;;;2.45;;
24151;SDS011;12311;50.866;4.332;2023-05-07T02:31:21;3.53;;;2.03;;
24151;SDS011;12311;50.866;4.332;2023-05-07T02:33:47;4.50;;;1.95;;
24151;SDS011;12311;50.866;4.332;2023-05-07T02:36:13;1.40;;;1.17;;
24151;SDS011;12311;50.866;4.332;2023-05-07T02:38:38;3.85;;;1.60;;
24151;SDS011;12311;50.866;4.332;2023-05-07T02:41:04;3.17;;;1.60;;
24151;SDS011;12311;50.866;4.332;2023-05-07T02:43:30;3.80;;;1.35;;
24151;SDS011;12311;50.866;4.332;2023-05-07T02:48:28;4.95;;;1.52;;
24151;SDS011;12311;50.866;4.332;2023-05-07T02:50:54;5.18;;;1.83;;
24151;SDS011;12311;50.866;4.332;2023-05-07T02:53:20;6.20;;;2.00;;
24151;SDS011;12311;50.866;4.332;2023-05-07T02:55:46;4.93;;;1.95;;
24151;SDS011;12311;50.866;4.332;2023-05-07T02:58:11;7.32;;;1.73;;
24151;SDS011;12311;50.866;4.332;2023-05-07T03:00:37;4.97;;;1.60;;
24151;SDS011;12311;50.866;4.332;2023-05-07T03:03:03;4.78;;;1.40;;
24151;SDS011;12311;50.866;4.332;2023-05-07T03:05:28;4.03;;;1.75;;
24151;SDS011;12311;50.866;4.332;2023-05-07T03:07:54;2.55;;;1.70;;
24151;SDS011;12311;50.866;4.332;2023-05-07T03:10:19;6.80;;;2.28;;
24151;SDS011;12311;50.866;4.332;2023-05-07T03:12:45;6.18;;;2.13;;
24151;SDS011;12311;50.866;4.332;2023-05-07T03:15:11;7.93;;;2.30;;
24151;SDS011;12311;50.866;4.332;2023-05-07T03:17:37;2.95;;;1.30;;
24151;SDS011;12311;50.866;4.332;2023-05-07T03:20:04;6.25;;;2.20;;
24151;SDS011;12311;50.866;4.332;2023-05-07T03:22:30;4.57;;;2.00;;
24151;SDS011;12311;50.866;4.332;2023-05-07T03:24:56;2.97;;;1.58;;
24151;SDS011;12311;50.866;4.332;2023-05-07T03:27:21;2.85;;;1.60;;
24151;SDS011;12311;50.866;4.332;2023-05-07T03:29:47;2.72;;;1.58;;
24151;SDS011;12311;50.866;4.332;2023-05-07T03:32:13;7.65;;;1.63;;
24151;SDS011;12311;50.866;4.332;2023-05-07T03:34:39;3.13;;;1.73;;
24151;SDS011;12311;50.866;4.332;2023-05-07T03:37:05;4.25;;;1.67;;
24151;SDS011;12311;50.866;4.332;2023-05-07T03:39:31;10.52;;;2.00;;
24151;SDS011;12311;50.866;4.332;2023-05-07T03:41:57;6.43;;;1.90;;
24151;SDS011;12311;50.866;4.332;2023-05-07T03:44:23;4.68;;;1.70;;
24151;SDS011;12311;50.866;4.332;2023-05-07T03:46:49;9.55;;;1.75;;
24151;SDS011;12311;50.866;4.332;2023-05-07T03:49:14;3.15;;;1.67;;
24151;SDS011;12311;50.866;4.332;2023-05-07T03:51:40;3.08;;;1.80;;
24151;SDS011;12311;50.866;4.332;2023-05-07T03:54:06;3.38;;;1.80;;
24151;SDS011;12311;50.866;4.332;2023-05-07T03:56:32;4.53;;;1.88;;
24151;SDS011;12311;50.866;4.332;2023-05-07T03:58:58;4.65;;;1.70;;
24151;SDS011;12311;50.866;4.332;2023-05-07T04:01:23;6.85;;;2.03;;
24151;SDS011;12311;50.866;4.332;2023-05-07T04:03:49;3.67;;;1.95;;
24151;SDS011;12311;50.866;4.332;2023-05-07T04:06:15;5.25;;;2.20;;
24151;SDS011;12311;50.866;4.332;2023-05-07T04:08:42;3.83;;;1.50;;
24151;SDS011;12311;50.866;4.332;2023-05-07T04:11:08;5.93;;;2.03;;
24151;SDS011;12311;50.866;4.332;2023-05-07T04:13:33;7.75;;;2.08;;
24151;SDS011;12311;50.866;4.332;2023-05-07T04:16:00;2.92;;;1.83;;
24151;SDS011;12311;50.866;4.332;2023-05-07T04:18:27;6.07;;;1.92;;
24151;SDS011;12311;50.866;4.332;2023-05-07T04:20:53;6.38;;;1.70;;
24151;SDS011;12311;50.866;4.332;2023-05-07T04:23:19;3.67;;;1.77;;
24151;SDS011;12311;50.866;4.332;2023-05-07T04:25:44;3.47;;;1.50;;
24151;SDS011;12311;50.866;4.332;2023-05-07T04:28:10;6.65;;;2.05;;
24151;SDS011;12311;50.866;4.332;2023-05-07T04:30:36;3.75;;;1.52;;
24151;SDS011;12311;50.866;4.332;2023-05-07T04:33:02;3.80;;;1.92;;
24151;SDS011;12311;50.866;4.332;2023-05-07T04:35:28;3.10;;;1.90;;
24151;SDS011;12311;50.866;4.332;2023-05-07T04:37:53;2.72;;;1.70;;
24151;SDS011;12311;50.866;4.332;2023-05-07T04:40:19;10.32;;;2.00;;
24151;SDS011;12311;50.866;4.332;2023-05-07T04:42:45;5.97;;;1.60;;
24151;SDS011;12311;50.866;4.332;2023-05-07T04:45:10;5.90;;;1.50;;
24151;SDS011;12311;50.866;4.332;2023-05-07T04:47:37;3.08;;;1.50;;
24151;SDS011;12311;50.866;4.332;2023-05-07T04:50:03;4.53;;;2.05;;
24151;SDS011;12311;50.866;4.332;2023-05-07T04:52:29;2.45;;;1.65;;
24151;SDS011;12311;50.866;4.332;2023-05-07T04:54:55;3.55;;;1.70;;
24151;SDS011;12311;50.866;4.332;2023-05-07T04:57:20;4.22;;;1.85;;
24151;SDS011;12311;50.866;4.332;2023-05-07T04:59:46;4.00;;;2.08;;
24151;SDS011;12311;50.866;4.332;2023-05-07T05:02:12;5.60;;;1.70;;
24151;SDS011;12311;50.866;4.332;2023-05-07T05:04:37;4.80;;;1.70;;
24151;SDS011;12311;50.866;4.332;2023-05-07T05:07:03;5.47;;;2.10;;
24151;SDS011;12311;50.866;4.332;2023-05-07T05:09:29;2.63;;;1.63;;
24151;SDS011;12311;50.866;4.332;2023-05-07T05:11:55;5.90;;;1.95;;
24151;SDS011;12311;50.866;4.332;2023-05-07T05:14:21;3.00;;;1.98;;
24151;SDS011;12311;50.866;4.332;2023-05-07T05:16:46;4.10;;;2.00;;
24151;SDS011;12311;50.866;4.332;2023-05-07T05:19:12;2.95;;;1.63;;
24151;SDS011;12311;50.866;4.332;2023-05-07T05:21:38;5.88;;;2.45;;
24151;SDS011;12311;50.866;4.332;2023-05-07T05:24:03;6.07;;;1.98;;
24151;SDS011;12311;50.866;4.332;2023-05-07T05:26:29;6.00;;;2.50;;
24151;SDS011;12311;50.866;4.332;2023-05-07T05:28:55;2.92;;;1.92;;
24151;SDS011;12311;50.866;4.332;2023-05-07T05:31:20;5.30;;;2.33;;
24151;SDS011;12311;50.866;4.332;2023-05-07T05:33:46;6.25;;;2.72;;
24151;SDS011;12311;50.866;4.332;2023-05-07T05:36:12;4.38;;;2.28;;
24151;SDS011;12311;50.866;4.332;2023-05-07T05:38:38;9.57;;;2.10;;
24151;SDS011;12311;50.866;4.332;2023-05-07T05:41:04;6.15;;;2.40;;
24151;SDS011;12311;50.866;4.332;2023-05-07T05:43:30;3.30;;;2.20;;
24151;SDS011;12311;50.866;4.332;2023-05-07T05:45:56;4.82;;;2.38;;
24151;SDS011;12311;50.866;4.332;2023-05-07T05:48:22;3.95;;;2.10;;
24151;SDS011;12311;50.866;4.332;2023-05-07T05:50:48;7.88;;;2.20;;
24151;SDS011;12311;50.866;4.332;2023-05-07T05:53:14;3.63;;;2.00;;
24151;SDS011;12311;50.866;4.332;2023-05-07T05:55:40;12.73;;;2.33;;
24151;SDS011;12311;50.866;4.332;2023-05-07T05:58:06;4.93;;;2.10;;
24151;SDS011;12311;50.866;4.332;2023-05-07T06:00:32;6.45;;;1.60;;
24151;SDS011;12311;50.866;4.332;2023-05-07T06:02:58;6.75;;;1.40;;
24151;SDS011;12311;50.866;4.332;2023-05-07T06:05:24;3.45;;;1.88;;
24151;SDS011;12311;50.866;4.332;2023-05-07T06:07:49;5.32;;;1.50;;
24151;SDS011;12311;50.866;4.332;2023-05-07T06:10:15;3.20;;;1.50;;
24151;SDS011;12311;50.866;4.332;2023-05-07T06:12:41;4.72;;;1.48;;
24151;SDS011;12311;50.866;4.332;2023-05-07T06:15:07;3.28;;;1.50;;
24151;SDS011;12311;50.866;4.332;2023-05-07T06:17:32;6.55;;;1.63;;
24151;SDS011;12311;50.866;4.332;2023-05-07T06:19:58;2.75;;;1.60;;
24151;SDS011;12311;50.866;4.332;2023-05-07T06:22:24;3.63;;;1.75;;
24151;SDS011;12311;50.866;4.332;2023-05-07T06:24:50;4.88;;;1.63;;
24151;SDS011;12311;50.866;4.332;2023-05-07T06:27:15;3.70;;;2.13;;
24151;SDS011;12311;50.866;4.332;2023-05-07T06:29:41;2.90;;;1.60;;
24151;SDS011;12311;50.866;4.332;2023-05-07T06:32:10;6.30;;;1.80;;
24151;SDS011;12311;50.866;4.332;2023-05-07T06:34:37;4.82;;;1.80;;
24151;SDS011;12311;50.866;4.332;2023-05-07T06:37:03;2.45;;;1.48;;
24151;SDS011;12311;50.866;4.332;2023-05-07T06:39:29;5.40;;;1.60;;
24151;SDS011;12311;50.866;4.332;2023-05-07T06:41:55;2.38;;;1.67;;
24151;SDS011;12311;50.866;4.332;2023-05-07T06:44:21;3.17;;;1.80;;
24151;SDS011;12311;50.866;4.332;2023-05-07T06:46:46;6.70;;;2.13;;
24151;SDS011;12311;50.866;4.332;2023-05-07T06:49:12;9.85;;;2.05;;
24151;SDS011;12311;50.866;4.332;2023-05-07T06:51:38;3.78;;;1.65;;
24151;SDS011;12311;50.866;4.332;2023-05-07T06:54:04;4.15;;;1.92;;
24151;SDS011;12311;50.866;4.332;2023-05-07T06:56:31;4.20;;;1.85;;
24151;SDS011;12311;50.866;4.332;2023-05-07T06:58:57;6.57;;;1.90;;
24151;SDS011;12311;50.866;4.332;2023-05-07T07:01:22;3.88;;;1.45;;
24151;SDS011;12311;50.866;4.332;2023-05-07T07:03:48;6.47;;;2.10;;
24151;SDS011;12311;50.866;4.332;2023-05-07T07:06:14;4.38;;;2.30;;
24151;SDS011;12311;50.866;4.332;2023-05-07T07:08:39;5.22;;;1.70;;
24151;SDS011;12311;50.866;4.332;2023-05-07T07:11:05;2.33;;;1.42;;
24151;SDS011;12311;50.866;4.332;2023-05-07T07:13:31;2.17;;;1.50;;
24151;SDS011;12311;50.866;4.332;2023-05-07T07:15:57;4.93;;;1.90;;
24151;SDS011;12311;50.866;4.332;2023-05-07T07:18:24;5.07;;;1.98;;
24151;SDS011;12311;50.866;4.332;2023-05-07T07:20:50;5.03;;;1.75;;
24151;SDS011;12311;50.866;4.332;2023-05-07T07:23:15;8.30;;;1.65;;
24151;SDS011;12311;50.866;4.332;2023-05-07T07:25:41;3.25;;;1.48;;
24151;SDS011;12311;50.866;4.332;2023-05-07T07:28:07;4.22;;;1.92;;
24151;SDS011;12311;50.866;4.332;2023-05-07T07:30:32;3.55;;;1.42;;
24151;SDS011;12311;50.866;4.332;2023-05-07T07:32:58;4.30;;;1.67;;
24151;SDS011;12311;50.866;4.332;2023-05-07T07:35:30;3.85;;;2.00;;
24151;SDS011;12311;50.866;4.332;2023-05-07T07:37:59;4.45;;;1.50;;
24151;SDS011;12311;50.866;4.332;2023-05-07T07:40:25;2.17;;;1.38;;
24151;SDS011;12311;50.866;4.332;2023-05-07T07:42:51;4.00;;;1.73;;
24151;SDS011;12311;50.866;4.332;2023-05-07T07:45:17;2.33;;;1.45;;
24151;SDS011;12311;50.866;4.332;2023-05-07T07:47:43;8.90;;;2.10;;
24151;SDS011;12311;50.866;4.332;2023-05-07T07:50:09;7.18;;;1.55;;
24151;SDS011;12311;50.866;4.332;2023-05-07T07:52:35;4.38;;;1.38;;
24151;SDS011;12311;50.866;4.332;2023-05-07T07:55:01;1.90;;;1.40;;
24151;SDS011;12311;50.866;4.332;2023-05-07T07:57:27;4.53;;;1.88;;
24151;SDS011;12311;50.866;4.332;2023-05-07T07:59:52;2.92;;;1.60;;
24151;SDS011;12311;50.866;4.332;2023-05-07T08:02:18;3.38;;;1.98;;
24151;SDS011;12311;50.866;4.332;2023-05-07T08:04:43;4.47;;;1.25;;
24151;SDS011;12311;50.866;4.332;2023-05-07T08:07:10;4.63;;;1.45;;
24151;SDS011;12311;50.866;4.332;2023-05-07T08:09:36;4.85;;;1.85;;
24151;SDS011;12311;50.866;4.332;2023-05-07T08:12:02;3.63;;;1.90;;
24151;SDS011;12311;50.866;4.332;2023-05-07T08:14:29;2.30;;;1.58;;
24151;SDS011;12311;50.866;4.332;2023-05-07T08:16:55;2.78;;;1.55;;
24151;SDS011;12311;50.866;4.332;2023-05-07T08:19:20;3.40;;;2.13;;
24151;SDS011;12311;50.866;4.332;2023-05-07T08:21:47;3.33;;;1.45;;
24151;SDS011;12311;50.866;4.332;2023-05-07T08:24:16;2.60;;;1.67;;
24151;SDS011;12311;50.866;4.332;2023-05-07T08:26:43;2.58;;;1.58;;
24151;SDS011;12311;50.866;4.332;2023-05-07T08:29:10;3.13;;;1.50;;
24151;SDS011;12311;50.866;4.332;2023-05-07T08:31:36;4.82;;;1.70;;
24151;SDS011;12311;50.866;4.332;2023-05-07T08:34:03;6.38;;;2.10;;
24151;SDS011;12311;50.866;4.332;2023-05-07T08:36:30;3.17;;;1.40;;
24151;SDS011;12311;50.866;4.332;2023-05-07T08:38:56;5.22;;;1.90;;
24151;SDS011;12311;50.866;4.332;2023-05-07T08:41:21;4.07;;;1.55;;
24151;SDS011;12311;50.866;4.332;2023-05-07T08:43:48;5.07;;;1.52;;
24151;SDS011;12311;50.866;4.332;2023-05-07T08:46:21;3.88;;;1.63;;
24151;SDS011;12311;50.866;4.332;2023-05-07T08:48:48;6.43;;;2.15;;
24151;SDS011;12311;50.866;4.332;2023-05-07T08:51:18;5.00;;;1.75;;
24151;SDS011;12311;50.866;4.332;2023-05-07T08:53:46;2.15;;;1.73;;
24151;SDS011;12311;50.866;4.332;2023-05-07T08:56:13;3.72;;;1.77;;
24151;SDS011;12311;50.866;4.332;2023-05-07T08:58:40;2.60;;;1.77;;
24151;SDS011;12311;50.866;4.332;2023-05-07T09:01:13;3.72;;;1.60;;
24151;SDS011;12311;50.866;4.332;2023-05-07T09:03:39;3.75;;;1.70;;
24151;SDS011;12311;50.866;4.332;2023-05-07T09:06:05;3.72;;;1.38;;
24151;SDS011;12311;50.866;4.332;2023-05-07T09:08:34;7.05;;;1.90;;
24151;SDS011;12311;50.866;4.332;2023-05-07T09:11:01;3.13;;;1.63;;
24151;SDS011;12311;50.866;4.332;2023-05-07T09:13:27;3.33;;;1.92;;
24151;SDS011;12311;50.866;4.332;2023-05-07T09:15:53;4.18;;;1.98;;
24151;SDS011;12311;50.866;4.332;2023-05-07T09:18:19;2.22;;;1.45;;
24151;SDS011;12311;50.866;4.332;2023-05-07T09:20:45;3.40;;;1.27;;
24151;SDS011;12311;50.866;4.332;2023-05-07T09:23:10;2.00;;;1.08;;
24151;SDS011;12311;50.866;4.332;2023-05-07T09:25:36;6.85;;;1.67;;
24151;SDS011;12311;50.866;4.332;2023-05-07T09:28:03;2.78;;;1.60;;
24151;SDS011;12311;50.866;4.332;2023-05-07T09:30:30;2.50;;;1.05;;
24151;SDS011;12311;50.866;4.332;2023-05-07T09:33:00;4.10;;;1.38;;
24151;SDS011;12311;50.866;4.332;2023-05-07T09:35:27;2.23;;;1.43;;
24151;SDS011;12311;50.866;4.332;2023-05-07T09:37:58;2.33;;;1.65;;
24151;SDS011;12311;50.866;4.332;2023-05-07T09:40:28;3.08;;;1.70;;
24151;SDS011;12311;50.866;4.332;2023-05-07T09:42:55;5.15;;;2.10;;
24151;SDS011;12311;50.866;4.332;2023-05-07T09:45:25;2.58;;;1.70;;
24151;SDS011;12311;50.866;4.332;2023-05-07T09:47:53;3.35;;;1.75;;
24151;SDS011;12311;50.866;4.332;2023-05-07T09:50:27;3.05;;;1.58;;
24151;SDS011;12311;50.866;4.332;2023-05-07T09:52:55;5.40;;;1.77;;
24151;SDS011;12311;50.866;4.332;2023-05-07T09:55:22;3.28;;;1.70;;
24151;SDS011;12311;50.866;4.332;2023-05-07T09:57:50;7.25;;;2.35;;
24151;SDS011;12311;50.866;4.332;2023-05-07T10:00:17;3.95;;;1.80;;
24151;SDS011;12311;50.866;4.332;2023-05-07T10:02:44;2.72;;;1.90;;
24151;SDS011;12311;50.866;4.332;2023-05-07T10:05:14;4.63;;;1.88;;
24151;SDS011;12311;50.866;4.332;2023-05-07T10:07:40;6.78;;;2.03;;
24151;SDS011;12311;50.866;4.332;2023-05-07T10:10:06;6.50;;;1.95;;
24151;SDS011;12311;50.866;4.332;2023-05-07T10:12:32;3.30;;;1.58;;
24151;SDS011;12311;50.866;4.332;2023-05-07T10:15:05;3.22;;;1.30;;
24151;SDS011;12311;50.866;4.332;2023-05-07T10:17:34;4.13;;;2.03;;
24151;SDS011;12311;50.866;4.332;2023-05-07T10:20:04;4.68;;;1.65;;
24151;SDS011;12311;50.866;4.332;2023-05-07T10:22:51;6.13;;;2.67;;
24151;SDS011;12311;50.866;4.332;2023-05-07T10:25:21;5.65;;;2.47;;
24151;SDS011;12311;50.866;4.332;2023-05-07T10:27:50;8.93;;;3.05;;
24151;SDS011;12311;50.866;4.332;2023-05-07T10:33:10;4.45;;;2.53;;
24151;SDS011;12311;50.866;4.332;2023-05-07T10:35:37;5.35;;;2.25;;
24151;SDS011;12311;50.866;4.332;2023-05-07T10:38:07;8.40;;;2.72;;
24151;SDS011;12311;50.866;4.332;2023-05-07T10:40:33;5.07;;;2.70;;
24151;SDS011;12311;50.866;4.332;2023-05-07T10:43:00;6.10;;;2.45;;
24151;SDS011;12311;50.866;4.332;2023-05-07T10:45:30;10.50;;;3.63;;
24151;SDS011;12311;50.866;4.332;2023-05-07T10:50:35;4.72;;;1.52;;
24151;SDS011;12311;50.866;4.332;2023-05-07T10:55:41;1.80;;;1.42;;
24151;SDS011;12311;50.866;4.332;2023-05-07T10:58:26;2.90;;;1.67;;
24151;SDS011;12311;50.866;4.332;2023-05-07T11:01:00;3.45;;;1.63;;
24151;SDS011;12311;50.866;4.332;2023-05-07T11:03:26;3.00;;;1.52;;
24151;SDS011;12311;50.866;4.332;2023-05-07T11:06:09;1.88;;;1.25;;
24151;SDS011;12311;50.866;4.332;2023-05-07T11:13:46;4.78;;;1.80;;
24151;SDS011;12311;50.866;4.332;2023-05-07T11:16:22;2.50;;;1.08;;
24151;SDS011;12311;50.866;4.332;2023-05-07T11:18:50;2.22;;;1.52;;
24151;SDS011;12311;50.866;4.332;2023-05-07T11:21:36;3.20;;;1.27;;
24151;SDS011;12311;50.866;4.332;2023-05-07T11:24:04;4.20;;;1.73;;
24151;SDS011;12311;50.866;4.332;2023-05-07T11:26:41;8.02;;;2.08;;
24151;SDS011;12311;50.866;4.332;2023-05-07T11:29:15;2.70;;;1.58;;
24151;SDS011;12311;50.866;4.332;2023-05-07T11:31:51;5.40;;;1.65;;
24151;SDS011;12311;50.866;4.332;2023-05-07T11:34:23;4.57;;;1.90;;
24151;SDS011;12311;50.866;4.332;2023-05-07T11:36:51;1.27;;;1.10;;
24151;SDS011;12311;50.866;4.332;2023-05-07T11:39:27;2.85;;;1.55;;
24151;SDS011;12311;50.866;4.332;2023-05-07T11:41:54;7.97;;;1.83;;
24151;SDS011;12311;50.866;4.332;2023-05-07T11:44:20;2.72;;;1.30;;
24151;SDS011;12311;50.866;4.332;2023-05-07T11:46:46;8.52;;;1.30;;
24151;SDS011;12311;50.866;4.332;2023-05-07T11:49:12;7.32;;;1.35;;
24151;SDS011;12311;50.866;4.332;2023-05-07T11:51:37;4.93;;;1.15;;
24151;SDS011;12311;50.866;4.332;2023-05-07T11:54:04;2.65;;;1.48;;
24151;SDS011;12311;50.866;4.332;2023-05-07T11:56:34;1.15;;;0.77;;
24151;SDS011;12311;50.866;4.332;2023-05-07T11:59:03;2.78;;;1.40;;
24151;SDS011;12311;50.866;4.332;2023-05-07T12:01:29;3.58;;;1.30;;
24151;SDS011;12311;50.866;4.332;2023-05-07T12:03:55;2.50;;;1.00;;
24151;SDS011;12311;50.866;4.332;2023-05-07T12:06:21;1.98;;;1.05;;
24151;SDS011;12311;50.866;4.332;2023-05-07T12:08:46;3.50;;;0.95;;
24151;SDS011;12311;50.866;4.332;2023-05-07T12:11:13;2.55;;;1.00;;
24151;SDS011;12311;50.866;4.332;2023-05-07T12:13:49;4.97;;;1.40;;
24151;SDS011;12311;50.866;4.332;2023-05-07T12:16:14;1.77;;;1.50;;
24151;SDS011;12311;50.866;4.332;2023-05-07T12:18:40;2.50;;;1.60;;
24151;SDS011;12311;50.866;4.332;2023-05-07T12:21:10;2.38;;;1.17;;
24151;SDS011;12311;50.866;4.332;2023-05-07T12:23:36;2.92;;;1.67;;
24151;SDS011;12311;50.866;4.332;2023-05-07T12:26:03;3.10;;;1.40;;
24151;SDS011;12311;50.866;4.332;2023-05-07T12:28:29;1.60;;;1.23;;
24151;SDS011;12311;50.866;4.332;2023-05-07T12:30:55;4.70;;;2.13;;
24151;SDS011;12311;50.866;4.332;2023-05-07T12:33:25;2.25;;;1.65;;
24151;SDS011;12311;50.866;4.332;2023-05-07T12:35:53;2.40;;;1.30;;
24151;SDS011;12311;50.866;4.332;2023-05-07T12:38:20;2.20;;;1.40;;
24151;SDS011;12311;50.866;4.332;2023-05-07T12:40:47;2.50;;;1.77;;
24151;SDS011;12311;50.866;4.332;2023-05-07T12:43:19;2.63;;;1.30;;
24151;SDS011;12311;50.866;4.332;2023-05-07T12:45:56;3.42;;;1.63;;
24151;SDS011;12311;50.866;4.332;2023-05-07T12:50:53;3.17;;;1.85;;
24151;SDS011;12311;50.866;4.332;2023-05-07T12:53:20;3.13;;;1.60;;
24151;SDS011;12311;50.866;4.332;2023-05-07T12:55:48;2.40;;;1.42;;
24151;SDS011;12311;50.866;4.332;2023-05-07T13:00:51;2.58;;;1.85;;
24151;SDS011;12311;50.866;4.332;2023-05-07T13:03:24;5.68;;;1.90;;
24151;SDS011;12311;50.866;4.332;2023-05-07T13:05:58;3.65;;;1.90;;
24151;SDS011;12311;50.866;4.332;2023-05-07T13:10:56;2.47;;;1.90;;
24151;SDS011;12311;50.866;4.332;2023-05-07T13:13:23;3.42;;;2.05;;
24151;SDS011;12311;50.866;4.332;2023-05-07T13:15:49;6.25;;;2.95;;
24151;SDS011;12311;50.866;4.332;2023-05-07T13:18:14;4.40;;;1.60;;
24151;SDS011;12311;50.866;4.332;2023-05-07T13:20:40;8.57;;;2.22;;
24151;SDS011;12311;50.866;4.332;2023-05-07T13:23:06;3.78;;;2.08;;
24151;SDS011;12311;50.866;4.332;2023-05-07T13:25:31;4.20;;;2.13;;
24151;SDS011;12311;50.866;4.332;2023-05-07T13:27:57;5.47;;;2.13;;
24151;SDS011;12311;50.866;4.332;2023-05-07T13:30:23;8.55;;;3.25;;
24151;SDS011;12311;50.866;4.332;2023-05-07T13:32:48;5.65;;;2.40;;
24151;SDS011;12311;50.866;4.332;2023-05-07T13:35:15;4.25;;;2.45;;
24151;SDS011;12311;50.866;4.332;2023-05-07T13:37:41;5.35;;;2.47;;
24151;SDS011;12311;50.866;4.332;2023-05-07T13:40:07;5.30;;;2.67;;
24151;SDS011;12311;50.866;4.332;2023-05-07T13:42:33;4.90;;;2.70;;
24151;SDS011;12311;50.866;4.332;2023-05-07T13:44:59;4.60;;;3.15;;
24151;SDS011;12311;50.866;4.332;2023-05-07T13:47:30;4.50;;;2.58;;
24151;SDS011;12311;50.866;4.332;2023-05-07T13:49:56;5.68;;;2.83;;
24151;SDS011;12311;50.866;4.332;2023-05-07T13:52:21;8.40;;;2.78;;
24151;SDS011;12311;50.866;4.332;2023-05-07T13:54:47;6.70;;;2.78;;
24151;SDS011;12311;50.866;4.332;2023-05-07T13:57:13;6.20;;;2.72;;
24151;SDS011;12311;50.866;4.332;2023-05-07T13:59:38;6.45;;;3.25;;
24151;SDS011;12311;50.866;4.332;2023-05-07T14:02:05;4.47;;;2.90;;
24151;SDS011;12311;50.866;4.332;2023-05-07T14:04:31;3.25;;;1.95;;
24151;SDS011;12311;50.866;4.332;2023-05-07T14:06:56;5.38;;;2.63;;
24151;SDS011;12311;50.866;4.332;2023-05-07T14:09:22;6.85;;;3.47;;
24151;SDS011;12311;50.866;4.332;2023-05-07T14:11:48;6.38;;;2.95;;
24151;SDS011;12311;50.866;4.332;2023-05-07T14:14:16;4.97;;;2.67;;
24151;SDS011;12311;50.866;4.332;2023-05-07T14:16:45;4.43;;;2.70;;
24151;SDS011;12311;50.866;4.332;2023-05-07T14:19:11;4.53;;;2.15;;
24151;SDS011;12311;50.866;4.332;2023-05-07T14:21:37;7.22;;;3.15;;
24151;SDS011;12311;50.866;4.332;2023-05-07T14:24:03;4.95;;;2.60;;
24151;SDS011;12311;50.866;4.332;2023-05-07T14:26:30;6.68;;;2.85;;
24151;SDS011;12311;50.866;4.332;2023-05-07T14:28:56;5.22;;;2.50;;
24151;SDS011;12311;50.866;4.332;2023-05-07T14:31:23;5.78;;;2.85;;
24151;SDS011;12311;50.866;4.332;2023-05-07T14:33:49;5.40;;;2.38;;
24151;SDS011;12311;50.866;4.332;2023-05-07T14:36:16;5.03;;;2.70;;
24151;SDS011;12311;50.866;4.332;2023-05-07T14:38:42;5.97;;;2.55;;
24151;SDS011;12311;50.866;4.332;2023-05-07T14:41:08;4.80;;;2.58;;
24151;SDS011;12311;50.866;4.332;2023-05-07T14:43:33;7.18;;;2.45;;
24151;SDS011;12311;50.866;4.332;2023-05-07T14:45:59;5.50;;;3.22;;
24151;SDS011;12311;50.866;4.332;2023-05-07T14:48:25;7.32;;;3.60;;
24151;SDS011;12311;50.866;4.332;2023-05-07T14:50:50;7.97;;;3.15;;
24151;SDS011;12311;50.866;4.332;2023-05-07T14:53:16;6.97;;;3.17;;
24151;SDS011;12311;50.866;4.332;2023-05-07T14:55:42;4.72;;;3.03;;
24151;SDS011;12311;50.866;4.332;2023-05-07T14:58:07;6.00;;;3.05;;
24151;SDS011;12311;50.866;4.332;2023-05-07T15:00:33;9.05;;;3.30;;
24151;SDS011;12311;50.866;4.332;2023-05-07T15:03:09;6.20;;;3.08;;
24151;SDS011;12311;50.866;4.332;2023-05-07T15:05:35;7.65;;;2.95;;
24151;SDS011;12311;50.866;4.332;2023-05-07T15:08:01;7.30;;;3.05;;
24151;SDS011;12311;50.866;4.332;2023-05-07T15:10:28;6.35;;;3.13;;